createdAt,value
2019-03-17T00:03:34.137Z,62.77
2019-03-17T00:08:36.521Z,62.87
2019-03-17T00:13:38.626Z,62.95
2019-03-17T00:18:41.173Z,64.02
2019-03-17T00:23:47.993Z,64.45
2019-03-17T00:28:50.245Z,65.46
2019-03-17T00:33:52.258Z,63.74
2019-03-17T00:38:57.188Z,63.20
2019-03-17T00:43:59.220Z,64.97
2019-03-17T00:49:01.456Z,62.90
2019-03-17T00:54:03.493Z,62.36
2019-03-17T00:59:05.837Z,63.71
2019-03-17T01:04:07.910Z,64.58
2019-03-17T01:09:10.062Z,65.05
2019-03-17T01:14:12.202Z,65.13
2019-03-17T01:19:17.202Z,66.94
2019-03-17T01:24:25.389Z,70.10
2019-03-17T01:29:27.501Z,74.89
2019-03-17T01:34:29.527Z,80.93
2019-03-17T01:39:31.561Z,100.00
2019-03-17T01:44:33.642Z,84.79
2019-03-17T01:49:35.725Z,100.00
2019-03-17T01:54:37.972Z,100.00
2019-03-17T01:59:42.544Z,100.00
2019-03-17T02:04:44.656Z,100.00
2019-03-17T02:09:46.680Z,100.00
2019-03-17T02:14:48.964Z,100.00
2019-03-17T02:19:54.096Z,100.00
2019-03-17T02:24:56.306Z,100.00
2019-03-17T02:29:58.315Z,100.00
2019-03-17T02:35:00.638Z,100.00
2019-03-17T02:40:03.244Z,100.00
2019-03-17T02:45:06.153Z,100.00
2019-03-17T02:50:08.450Z,100.00
2019-03-17T02:55:10.675Z,89.90
2019-03-17T03:00:13.449Z,100.00
2019-03-17T03:05:15.639Z,100.00
2019-03-17T03:10:17.662Z,85.78
2019-03-17T03:15:19.815Z,86.93
2019-03-17T03:20:23.207Z,81.01
2019-03-17T03:25:25.309Z,79.07
2019-03-17T03:30:27.363Z,84.63
2019-03-17T03:35:29.581Z,97.39
2019-03-17T03:40:32.152Z,94.32
2019-03-17T03:45:34.189Z,100.00
2019-03-17T03:50:36.219Z,100.00
2019-03-17T03:55:41.963Z,100.00
2019-03-17T04:00:42.389Z,100.00
2019-03-17T04:05:44.616Z,100.00
2019-03-17T04:10:46.795Z,100.00
2019-03-17T04:15:49.126Z,100.00
2019-03-17T04:20:54.048Z,100.00
2019-03-17T04:25:56.117Z,100.00
2019-03-17T04:30:59.926Z,100.00
2019-03-17T04:36:02.250Z,100.00
2019-03-17T04:41:05.954Z,100.00
2019-03-17T04:46:08.041Z,100.00
2019-03-17T04:51:10.082Z,100.00
2019-03-17T04:56:12.368Z,100.00
2019-03-17T05:01:14.466Z,100.00
2019-03-17T05:06:16.610Z,100.00
2019-03-17T05:11:29.168Z,100.00
2019-03-17T05:16:31.342Z,100.00
2019-03-17T05:21:35.211Z,100.00
2019-03-17T05:26:37.931Z,100.00
2019-03-17T05:31:41.321Z,100.00
2019-03-17T05:36:43.654Z,100.00
2019-03-17T05:41:48.055Z,100.00
2019-03-17T05:46:52.152Z,100.00
2019-03-17T05:51:55.983Z,100.00
2019-03-17T05:56:58.187Z,100.00
2019-03-17T06:02:00.197Z,100.00
2019-03-17T06:07:02.538Z,100.00
2019-03-17T06:12:04.570Z,100.00
2019-03-17T06:17:09.288Z,100.00
2019-03-17T06:22:14.214Z,100.00
2019-03-17T06:27:16.662Z,100.00
2019-03-17T06:32:18.662Z,100.00
2019-03-17T06:37:30.958Z,100.00
2019-03-17T06:42:27.493Z,100.00
2019-03-17T06:47:29.523Z,100.00
2019-03-17T06:52:31.547Z,100.00
2019-03-17T06:57:33.758Z,100.00
2019-03-17T07:02:38.521Z,100.00
2019-03-17T07:07:45.645Z,100.00
2019-03-17T07:12:47.785Z,100.00
2019-03-17T07:17:52.385Z,100.00
2019-03-17T07:22:54.555Z,100.00
2019-03-17T07:27:56.909Z,100.00
2019-03-17T07:32:58.942Z,100.00
2019-03-17T07:38:04.083Z,100.00
2019-03-17T07:43:08.194Z,100.00
2019-03-17T07:48:10.260Z,100.00
2019-03-17T07:53:14.833Z,100.00
2019-03-17T07:58:17.096Z,100.00
2019-03-17T08:03:19.132Z,100.00
2019-03-17T08:08:22.358Z,100.00
2019-03-17T08:13:24.415Z,100.00
2019-03-17T08:18:26.552Z,100.00
2019-03-17T08:23:28.625Z,100.00
2019-03-17T08:28:30.794Z,100.00
2019-03-17T08:33:32.875Z,100.00
2019-03-17T08:38:35.064Z,100.00
2019-03-17T08:43:37.256Z,100.00
2019-03-17T08:48:40.411Z,100.00
2019-03-17T08:53:42.476Z,100.00
2019-03-17T08:58:44.857Z,100.00
2019-03-17T09:03:47.131Z,100.00
2019-03-17T09:08:50.868Z,100.00
2019-03-17T09:13:52.942Z,100.00
2019-03-17T09:18:56.080Z,100.00
2019-03-17T09:24:00.577Z,100.00
2019-03-17T09:29:02.900Z,100.00
2019-03-17T09:34:04.997Z,100.00
2019-03-17T09:39:10.094Z,100.00
2019-03-17T09:44:12.172Z,100.00
2019-03-17T09:49:14.196Z,100.00
2019-03-17T09:54:18.386Z,100.00
2019-03-17T09:59:22.565Z,100.00
2019-03-17T10:04:26.574Z,100.00
2019-03-17T10:09:28.664Z,100.00
2019-03-17T10:14:30.742Z,100.00
2019-03-17T10:19:35.553Z,100.00
2019-03-17T10:24:37.860Z,100.00
2019-03-17T10:29:42.962Z,100.00
2019-03-17T10:34:47.344Z,100.00
2019-03-17T10:39:50.751Z,100.00
2019-03-17T10:44:52.960Z,100.00
2019-03-17T10:49:58.031Z,100.00
2019-03-17T10:55:00.426Z,100.00
2019-03-17T11:00:02.593Z,100.00
2019-03-17T11:05:05.195Z,100.00
2019-03-17T11:10:07.517Z,100.00
2019-03-17T11:15:13.234Z,100.00
2019-03-17T11:20:18.442Z,100.00
2019-03-17T11:25:24.617Z,100.00
2019-03-17T11:30:26.725Z,100.00
2019-03-17T11:35:28.929Z,100.00
2019-03-17T11:40:31.186Z,100.00
2019-03-17T11:45:33.544Z,100.00
2019-03-17T11:50:38.032Z,100.00
2019-03-17T11:55:43.041Z,100.00
2019-03-17T12:00:45.096Z,100.00
2019-03-17T12:05:47.262Z,100.00
2019-03-17T12:10:54.867Z,100.00
2019-03-17T12:16:05.364Z,100.00
2019-03-17T12:21:10.432Z,100.00
2019-03-17T12:26:13.202Z,100.00
2019-03-17T12:31:18.188Z,100.00
2019-03-17T12:36:21.606Z,100.00
2019-03-17T12:41:24.534Z,100.00
2019-03-17T12:46:29.313Z,100.00
2019-03-17T12:51:31.421Z,100.00
2019-03-17T12:56:35.834Z,100.00
2019-03-17T13:01:39.781Z,96.57
2019-03-17T13:06:42.463Z,96.57
2019-03-17T13:11:45.684Z,96.54
2019-03-17T13:16:48.256Z,98.61
2019-03-17T13:21:50.242Z,98.89
2019-03-17T13:26:52.571Z,94.28
2019-03-17T13:31:56.694Z,96.64
2019-03-17T13:36:58.861Z,100.00
2019-03-17T13:42:02.797Z,99.11
2019-03-17T13:47:10.105Z,91.29
2019-03-17T13:52:12.188Z,95.83
2019-03-17T13:57:14.614Z,95.83
2019-03-17T14:02:22.213Z,92.88
2019-03-17T14:07:24.300Z,91.38
2019-03-17T14:12:26.361Z,91.38
2019-03-17T14:17:28.583Z,95.04
2019-03-17T14:22:33.210Z,97.26
2019-03-17T14:27:38.679Z,92.52
2019-03-17T14:32:43.094Z,94.00
2019-03-17T14:37:47.297Z,95.75
2019-03-17T14:42:49.370Z,98.29
2019-03-17T14:47:51.566Z,100.00
2019-03-17T14:52:54.686Z,97.81
2019-03-17T14:57:58.879Z,99.20
2019-03-17T15:03:02.025Z,91.99
2019-03-17T15:08:04.340Z,90.02
2019-03-17T15:13:06.949Z,90.71
2019-03-17T15:18:11.629Z,90.46
2019-03-17T15:23:14.071Z,92.68
2019-03-17T15:28:16.517Z,93.71
2019-03-17T15:33:22.005Z,95.30
2019-03-17T15:38:26.794Z,97.13
2019-03-17T15:43:29.099Z,94.18
2019-03-17T15:48:34.266Z,92.53
2019-03-17T15:53:36.507Z,94.18
2019-03-17T15:58:38.870Z,93.49
2019-03-17T16:03:41.009Z,96.57
2019-03-17T16:08:46.342Z,93.78
2019-03-17T16:13:51.490Z,92.06
2019-03-17T16:18:55.967Z,90.96
2019-03-17T16:24:02.542Z,92.15
2019-03-17T16:29:07.552Z,92.15
2019-03-17T16:34:09.880Z,91.14
2019-03-17T16:39:11.941Z,88.95
2019-03-17T16:44:15.414Z,89.44
2019-03-17T16:49:18.048Z,89.81
2019-03-17T16:54:20.328Z,91.82
2019-03-17T16:59:22.385Z,92.38
2019-03-17T17:04:24.403Z,93.02
2019-03-17T17:09:26.519Z,90.29
2019-03-17T17:14:28.613Z,90.59
2019-03-17T17:19:35.027Z,94.45
2019-03-17T17:24:37.030Z,92.54
2019-03-17T17:29:44.321Z,92.99
2019-03-17T17:34:48.392Z,94.13
2019-03-17T17:39:50.414Z,94.09
2019-03-17T17:44:55.217Z,97.21
2019-03-17T17:49:57.387Z,98.79
2019-03-17T17:54:59.500Z,97.07
2019-03-17T18:00:01.600Z,100.00
2019-03-17T18:05:04.126Z,99.33
2019-03-17T18:10:06.740Z,100.00
2019-03-17T18:15:12.142Z,99.21
2019-03-17T18:20:14.223Z,100.00
2019-03-17T18:25:17.633Z,100.00
2019-03-17T18:30:20.385Z,100.00
2019-03-17T18:35:22.745Z,100.00
2019-03-17T18:40:32.395Z,100.00
2019-03-17T18:45:38.384Z,100.00
2019-03-17T18:50:40.649Z,100.00
2019-03-17T18:55:43.240Z,100.00
2019-03-17T19:00:45.423Z,100.00
2019-03-17T19:05:47.809Z,100.00
2019-03-17T19:10:49.864Z,100.00
2019-03-17T19:15:52.082Z,100.00
2019-03-17T19:20:54.368Z,100.00
2019-03-17T19:25:56.689Z,100.00
2019-03-17T19:31:00.181Z,100.00
2019-03-17T19:36:04.557Z,100.00
2019-03-17T19:41:07.094Z,100.00
2019-03-17T19:46:12.001Z,100.00
2019-03-17T19:51:19.133Z,100.00
2019-03-17T19:56:21.438Z,100.00
2019-03-17T20:01:25.528Z,100.00
2019-03-17T20:06:27.871Z,100.00
2019-03-17T20:11:33.970Z,100.00
2019-03-17T20:16:36.133Z,100.00
2019-03-17T20:21:38.175Z,100.00
2019-03-17T20:26:40.505Z,100.00
2019-03-17T20:31:42.559Z,100.00
2019-03-17T20:36:46.013Z,100.00
2019-03-17T20:41:53.082Z,100.00
2019-03-17T20:46:56.893Z,100.00
2019-03-17T20:52:00.266Z,100.00
2019-03-17T20:57:02.396Z,100.00
2019-03-17T21:02:04.636Z,100.00
2019-03-17T21:07:07.298Z,100.00
2019-03-17T21:12:10.025Z,100.00
2019-03-17T21:17:14.154Z,100.00
2019-03-17T21:22:16.384Z,100.00
2019-03-17T21:27:19.612Z,100.00
2019-03-17T21:32:24.200Z,100.00
2019-03-17T21:37:26.565Z,100.00
2019-03-17T21:42:28.600Z,100.00
2019-03-17T21:47:33.067Z,100.00
2019-03-17T21:52:37.784Z,100.00
2019-03-17T21:57:40.117Z,100.00
2019-03-17T22:02:42.420Z,100.00
2019-03-17T22:07:50.237Z,100.00
2019-03-17T22:12:49.756Z,100.00
2019-03-17T22:17:52.491Z,100.00
2019-03-17T22:22:56.755Z,100.00
2019-03-17T22:28:08.210Z,100.00
2019-03-17T22:33:05.195Z,100.00
2019-03-17T22:38:07.259Z,100.00
2019-03-17T22:43:11.682Z,100.00
2019-03-17T22:48:14.846Z,100.00
2019-03-17T22:53:17.048Z,100.00
2019-03-17T22:58:19.460Z,100.00
2019-03-17T23:03:21.499Z,100.00
2019-03-17T23:08:23.684Z,100.00
2019-03-17T23:13:25.697Z,100.00
2019-03-17T23:18:27.955Z,100.00
2019-03-17T23:23:31.895Z,100.00
2019-03-17T23:28:34.184Z,100.00
2019-03-17T23:33:36.380Z,100.00
2019-03-17T23:38:38.961Z,100.00
2019-03-17T23:43:43.220Z,100.00
2019-03-17T23:48:45.362Z,100.00
2019-03-17T23:53:49.561Z,100.00
2019-03-17T23:58:53.560Z,100.00
